Time;durP1;ratioP1;P1;durP2;ratioP2;P2;SDS_P1;SDS_P2;PMS_P1;PMS_P2;Temp;Humidity;BMP_temperature;BMP_pressure;BME280_temperature;BME280_humidity;BME280_pressure;Samples;Min_cycle;Max_cycle;Signal;HPM_P1;HPM_P2
2022/03/25 00:01:57;;;;;;;101.20;61.58;;;5.30;99.90;;;;;;5093615;28;20048;-68
2022/03/25 00:04:22;;;;;;;104.05;60.42;;;5.30;99.90;;;;;;5093186;28;20073;-68
2022/03/25 00:06:48;;;;;;;89.80;56.15;;;5.00;99.90;;;;;;5076571;28;20482;-68
2022/03/25 00:09:14;;;;;;;93.18;58.45;;;5.10;99.90;;;;;;5076953;28;20036;-68
2022/03/25 00:11:40;;;;;;;98.90;60.35;;;5.00;99.90;;;;;;5093435;28;20047;-68
2022/03/25 00:14:06;;;;;;;87.90;55.45;;;5.10;99.90;;;;;;5093286;28;20040;-68
2022/03/25 00:16:32;;;;;;;70.50;46.33;;;4.90;99.90;;;;;;5111617;28;20078;-69
2022/03/25 00:18:58;;;;;;;72.65;45.85;;;4.80;99.90;;;;;;5076757;28;20043;-69
2022/03/25 00:21:24;;;;;;;94.57;56.17;;;5.10;99.90;;;;;;5093292;28;20051;-70
2022/03/25 00:23:50;;;;;;;101.70;59.45;;;5.00;99.90;;;;;;5094202;28;20097;-68
2022/03/25 00:26:15;;;;;;;96.57;58.05;;;5.00;99.90;;;;;;5096915;28;20043;-68
2022/03/25 00:28:41;;;;;;;99.95;60.25;;;5.00;99.90;;;;;;5046683;28;20044;-68
2022/03/25 00:31:07;;;;;;;101.80;60.90;;;4.50;99.90;;;;;;5096835;28;20039;-68
2022/03/25 00:33:36;;;;;;;107.43;63.10;;;4.90;99.90;;;;;;5079878;28;20115;-68
2022/03/25 00:36:03;;;;;;;108.47;62.15;;;4.80;99.90;;;;;;5096652;28;20040;-68
2022/03/25 00:38:29;;;;;;;101.63;61.63;;;4.80;99.90;;;;;;5096869;28;20036;-68
2022/03/25 00:40:55;;;;;;;105.30;62.35;;;4.70;99.90;;;;;;5096395;28;20045;-68
2022/03/25 00:43:22;;;;;;;107.57;62.35;;;4.80;99.90;;;;;;5096824;28;20035;-68
2022/03/25 00:45:48;;;;;;;111.07;61.65;;;4.70;99.90;;;;;;5096602;28;20043;-68
2022/03/25 00:48:14;;;;;;;112.18;65.20;;;4.90;99.90;;;;;;5114870;28;20116;-69
2022/03/25 00:50:41;;;;;;;112.53;65.88;;;5.00;99.90;;;;;;5096513;28;20032;-68
2022/03/25 00:53:07;;;;;;;107.55;62.70;;;5.00;99.90;;;;;;5114990;28;20367;-69
2022/03/25 00:55:34;;;;;;;108.80;61.90;;;5.20;99.90;;;;;;5079500;28;20039;-68
2022/03/25 00:58:00;;;;;;;108.47;63.78;;;4.60;99.90;;;;;;5096564;28;20047;-69
2022/03/25 01:00:26;;;;;;;114.85;65.43;;;5.00;99.90;;;;;;5062877;28;20036;-69
2022/03/25 01:02:52;;;;;;;109.53;66.15;;;5.00;99.90;;;;;;5096260;28;20039;-68
2022/03/25 01:05:18;;;;;;;109.50;64.82;;;4.80;99.90;;;;;;5096115;28;20555;-69
2022/03/25 01:07:44;;;;;;;109.35;66.22;;;4.80;99.90;;;;;;5079582;28;20081;-68
2022/03/25 01:10:11;;;;;;;110.82;64.30;;;5.20;99.90;;;;;;5096328;28;20035;-68
2022/03/25 01:12:37;;;;;;;118.70;68.45;;;5.00;99.90;;;;;;5079124;28;20035;-69
2022/03/25 01:15:04;;;;;;;116.70;67.13;;;4.90;99.90;;;;;;5095905;28;20505;-69
2022/03/25 01:17:30;;;;;;;123.63;69.90;;;5.00;99.90;;;;;;5095974;28;20047;-69
2022/03/25 01:19:56;;;;;;;116.85;65.32;;;5.40;99.90;;;;;;5079299;28;20055;-69
2022/03/25 01:22:22;;;;;;;110.20;64.72;;;5.00;99.90;;;;;;5096042;28;20096;-69
2022/03/25 01:24:48;;;;;;;124.20;69.95;;;5.10;99.90;;;;;;5095868;28;20038;-69
2022/03/25 01:27:14;;;;;;;104.78;64.75;;;4.80;99.90;;;;;;5095649;28;20036;-69
2022/03/25 01:29:40;;;;;;;108.13;62.70;;;4.90;99.90;;;;;;5095770;28;20075;-69
2022/03/25 01:32:08;;;;;;;109.22;65.60;;;5.20;99.90;;;;;;5095596;28;20081;-69
2022/03/25 01:34:34;;;;;;;117.35;71.70;;;4.80;99.90;;;;;;5078935;28;20047;-69
2022/03/25 01:37:01;;;;;;;106.82;64.28;;;5.10;99.90;;;;;;5113941;28;20444;-68
2022/03/25 01:39:27;;;;;;;122.13;69.47;;;5.30;99.90;;;;;;5114071;28;20453;-69
2022/03/25 01:41:52;;;;;;;115.15;65.40;;;4.70;99.90;;;;;;5095852;28;20127;-69
2022/03/25 01:44:29;;;;;;;119.88;67.55;;;5.00;99.90;;;;;;5113553;28;20487;-68
2022/03/25 01:46:57;;;;;;;118.68;69.20;;;5.50;99.90;;;;;;5095079;28;20063;-68
2022/03/25 01:49:23;;;;;;;117.47;68.03;;;4.80;99.90;;;;;;5095619;28;20044;-68
2022/03/25 01:51:55;;;;;;;120.68;68.88;;;4.90;99.90;;;;;;5095488;28;20051;-68
2022/03/25 01:54:29;;;;;;;113.57;67.53;;;4.90;99.90;;;;;;5095177;28;20098;-68
2022/03/25 01:57:05;;;;;;;121.22;69.07;;;4.60;99.90;;;;;;5113789;28;20052;-69
2022/03/25 01:59:31;;;;;;;115.03;67.63;;;4.60;99.90;;;;;;5095084;28;20118;-68
2022/03/25 02:01:58;;;;;;;126.93;70.32;;;5.00;99.90;;;;;;5095337;28;20119;-69
2022/03/25 02:04:25;;;;;;;117.25;67.55;;;4.80;99.90;;;;;;5078411;28;20135;-69
2022/03/25 02:06:52;;;;;;;116.53;69.22;;;5.20;99.90;;;;;;5095149;28;20075;-68
2022/03/25 02:09:18;;;;;;;117.03;68.82;;;4.80;99.90;;;;;;5094868;28;20051;-68
2022/03/25 02:11:44;;;;;;;129.82;71.93;;;4.20;99.90;;;;;;5094528;28;20043;-68
2022/03/25 02:14:11;;;;;;;135.93;71.68;;;4.60;99.90;;;;;;5077892;28;20039;-68
2022/03/25 02:16:42;;;;;;;111.68;66.30;;;4.80;99.90;;;;;;5078356;28;20047;-68
2022/03/25 02:19:08;;;;;;;115.82;66.55;;;4.70;99.90;;;;;;5094908;28;20379;-68
2022/03/25 02:21:38;;;;;;;133.68;71.47;;;4.90;99.90;;;;;;5091444;22;20209;-72
2022/03/25 02:24:06;;;;;;;125.05;69.20;;;5.60;99.90;;;;;;5071015;28;20052;-74
2022/03/25 02:26:32;;;;;;;116.00;66.40;;;4.50;99.90;;;;;;5054989;28;20036;-74
2022/03/25 02:29:00;;;;;;;104.28;64.95;;;4.50;99.90;;;;;;5071076;28;20043;-74
2022/03/25 02:31:26;;;;;;;120.97;66.78;;;4.50;99.90;;;;;;5071273;28;20052;-74
2022/03/25 02:34:02;;;;;;;120.70;68.75;;;5.50;99.90;;;;;;5054412;28;20128;-73
2022/03/25 02:36:29;;;;;;;117.78;67.20;;;4.50;99.90;;;;;;5070903;28;20040;-74
2022/03/25 02:38:54;;;;;;;117.05;64.72;;;5.00;99.90;;;;;;5070890;28;20052;-74
2022/03/25 02:41:20;;;;;;;118.47;68.68;;;4.60;99.90;;;;;;5054273;28;20186;-75
2022/03/25 02:43:46;;;;;;;119.07;67.00;;;4.50;99.90;;;;;;5054073;28;20045;-73
2022/03/25 02:46:11;;;;;;;113.38;64.85;;;4.60;99.90;;;;;;5070512;28;20037;-73
2022/03/25 02:48:37;;;;;;;102.85;60.67;;;5.20;99.90;;;;;;5070598;28;20036;-73
2022/03/25 02:51:03;;;;;;;108.22;64.38;;;4.60;99.90;;;;;;5054046;28;20047;-75
2022/03/25 02:53:29;;;;;;;125.28;68.35;;;5.30;99.90;;;;;;5070780;28;20158;-73
2022/03/25 02:55:56;;;;;;;114.13;66.55;;;4.20;99.90;;;;;;5054010;28;20448;-73
2022/03/25 02:58:22;;;;;;;109.43;63.45;;;4.90;99.90;;;;;;5070658;28;20033;-73
2022/03/25 03:00:48;;;;;;;105.35;60.50;;;4.40;99.90;;;;;;5054011;28;20044;-74
2022/03/25 03:03:13;;;;;;;117.35;65.50;;;5.00;99.90;;;;;;5070825;28;20452;-74
2022/03/25 03:05:40;;;;;;;111.88;62.80;;;5.10;99.90;;;;;;5070443;28;20110;-74
2022/03/25 03:08:06;;;;;;;110.28;61.65;;;4.20;99.90;;;;;;5070785;28;20047;-74
2022/03/25 03:10:32;;;;;;;96.82;59.13;;;4.20;99.90;;;;;;5054051;28;20044;-74
2022/03/25 03:12:59;;;;;;;105.75;61.42;;;4.20;99.90;;;;;;5037526;28;20123;-73
2022/03/25 03:15:25;;;;;;;103.65;59.75;;;4.10;99.90;;;;;;5054125;28;20054;-73
2022/03/25 03:17:51;;;;;;;104.38;60.72;;;4.40;99.90;;;;;;5070427;28;20041;-74
2022/03/25 03:20:20;;;;;;;110.32;60.85;;;4.10;99.90;;;;;;5053418;28;20056;-74
2022/03/25 03:22:47;;;;;;;111.03;61.47;;;4.30;99.90;;;;;;5053647;28;20048;-74
2022/03/25 03:25:13;;;;;;;108.88;61.38;;;4.30;99.90;;;;;;5070293;28;20127;-73
2022/03/25 03:27:39;;;;;;;103.10;59.20;;;4.50;99.90;;;;;;5037150;28;20177;-73
2022/03/25 03:30:11;;;;;;;91.18;55.95;;;4.20;99.90;;;;;;5070321;28;20454;-75
2022/03/25 03:32:37;;;;;;;121.65;59.42;;;4.00;99.90;;;;;;5053392;28;20040;-75
2022/03/25 03:35:03;;;;;;;99.82;58.85;;;4.60;99.90;;;;;;5070343;28;20049;-74
2022/03/25 03:37:29;;;;;;;89.88;53.58;;;4.10;99.90;;;;;;5070283;28;20090;-74
2022/03/25 03:39:55;;;;;;;84.28;52.03;;;4.10;99.90;;;;;;5070245;28;20080;-74
2022/03/25 03:42:21;;;;;;;78.55;48.22;;;4.00;99.90;;;;;;5053568;28;20041;-74
2022/03/25 03:44:47;;;;;;;84.68;50.50;;;4.10;99.90;;;;;;5053423;28;20045;-75
2022/03/25 03:47:14;;;;;;;79.82;49.20;;;3.80;99.90;;;;;;5070140;28;20451;-75
2022/03/25 03:49:40;;;;;;;85.90;50.10;;;3.70;99.90;;;;;;5053537;28;20048;-73
2022/03/25 03:52:08;;;;;;;77.13;47.10;;;4.10;99.90;;;;;;5037207;28;20037;-74
2022/03/25 03:54:36;;;;;;;72.78;47.33;;;3.80;99.90;;;;;;5053372;28;20076;-74
2022/03/25 03:57:02;;;;;;;216.50;54.28;;;3.60;99.90;;;;;;5037019;28;20046;-75
2022/03/25 03:59:28;;;;;;;87.95;45.85;;;3.20;99.90;;;;;;5038627;28;20089;-74
2022/03/25 04:01:54;;;;;;;126.80;55.22;;;3.10;99.90;;;;;;5073780;28;20049;-74
2022/03/25 04:04:19;;;;;;;86.18;48.30;;;3.30;99.90;;;;;;5057281;28;20041;-73
2022/03/25 04:06:45;;;;;;;86.15;48.42;;;2.80;99.90;;;;;;5057087;28;20032;-73
2022/03/25 04:09:11;;;;;;;76.93;46.42;;;3.00;99.90;;;;;;5073693;28;20395;-74
2022/03/25 04:11:37;;;;;;;71.32;43.58;;;3.20;99.90;;;;;;5073948;28;20085;-73
2022/03/25 04:14:03;;;;;;;59.42;37.83;;;2.70;99.90;;;;;;5040422;28;20048;-73
2022/03/25 04:16:29;;;;;;;52.60;35.17;;;3.70;99.90;;;;;;5056977;28;20043;-74
2022/03/25 04:18:56;;;;;;;58.88;37.63;;;2.90;99.90;;;;;;5073623;28;20120;-75
2022/03/25 04:21:22;;;;;;;58.03;37.08;;;2.70;99.90;;;;;;5057057;28;20397;-74
2022/03/25 04:23:48;;;;;;;55.80;36.55;;;2.50;99.90;;;;;;5073381;28;20060;-73
2022/03/25 04:26:14;;;;;;;55.83;36.55;;;2.60;99.90;;;;;;5057175;28;20047;-73
2022/03/25 04:28:39;;;;;;;52.15;36.33;;;2.50;99.90;;;;;;5073305;28;20119;-73
2022/03/25 04:31:06;;;;;;;51.22;34.90;;;2.10;99.90;;;;;;5056828;28;20044;-73
2022/03/25 04:33:34;;;;;;;58.25;36.65;;;3.00;99.90;;;;;;5056655;28;20040;-74
2022/03/25 04:36:00;;;;;;;51.72;35.00;;;2.40;99.90;;;;;;5073599;28;20047;-74
2022/03/25 04:38:27;;;;;;;51.55;36.00;;;2.80;99.90;;;;;;5056773;28;20044;-74
2022/03/25 04:40:52;;;;;;;54.78;36.80;;;3.00;99.90;;;;;;5073124;28;20043;-74
2022/03/25 04:43:18;;;;;;;54.30;36.20;;;2.30;99.90;;;;;;5056628;28;20037;-74
2022/03/25 04:45:44;;;;;;;55.90;36.15;;;2.40;99.90;;;;;;5072866;28;20491;-74
2022/03/25 04:48:11;;;;;;;48.63;34.30;;;2.40;99.90;;;;;;5056291;28;20041;-74
2022/03/25 04:50:38;;;;;;;55.17;37.47;;;2.20;99.90;;;;;;5072915;28;20067;-74
2022/03/25 04:53:04;;;;;;;51.60;34.53;;;2.10;99.90;;;;;;5056311;28;20032;-74
2022/03/25 04:55:31;;;;;;;57.22;36.47;;;2.30;99.90;;;;;;5073179;28;20056;-73
2022/03/25 04:57:57;;;;;;;58.22;37.15;;;3.00;99.90;;;;;;5072809;28;20051;-75
2022/03/25 05:00:23;;;;;;;55.47;35.33;;;2.40;99.90;;;;;;5072896;28;20044;-74
2022/03/25 05:02:49;;;;;;;53.17;35.40;;;2.50;99.90;;;;;;5056100;28;20413;-73
2022/03/25 05:05:15;;;;;;;49.72;34.58;;;2.10;99.90;;;;;;5055908;28;20052;-74
2022/03/25 05:07:46;;;;;;;52.53;34.97;;;2.10;99.90;;;;;;5055934;28;20040;-75
2022/03/25 05:10:13;;;;;;;52.42;35.53;;;2.70;99.90;;;;;;5071897;28;20526;-75
2022/03/25 05:12:40;;;;;;;56.55;35.78;;;2.00;99.90;;;;;;5072534;28;20133;-74
2022/03/25 05:15:06;;;;;;;58.40;36.70;;;2.40;99.90;;;;;;5039299;28;20133;-75
2022/03/25 05:17:32;;;;;;;58.72;35.90;;;2.30;99.90;;;;;;5055916;28;20063;-74
2022/03/25 05:19:58;;;;;;;55.83;36.25;;;2.20;99.90;;;;;;5055750;28;20040;-74
2022/03/25 05:22:24;;;;;;;53.00;35.03;;;2.90;99.90;;;;;;5055590;28;20064;-75
2022/03/25 05:24:49;;;;;;;64.53;38.05;;;2.10;99.90;;;;;;5039208;28;20041;-73
2022/03/25 05:27:16;;;;;;;64.53;39.92;;;2.20;99.90;;;;;;5072158;28;20036;-73
2022/03/25 05:29:42;;;;;;;67.70;40.53;;;2.50;99.90;;;;;;5055517;28;20041;-73
2022/03/25 05:32:09;;;;;;;62.17;38.10;;;2.20;99.90;;;;;;5055703;28;20059;-74
2022/03/25 05:34:35;;;;;;;64.50;38.15;;;2.10;99.90;;;;;;5072079;28;20040;-73
2022/03/25 05:37:01;;;;;;;64.95;40.42;;;2.10;99.90;;;;;;5038827;28;20407;-74
2022/03/25 05:39:27;;;;;;;59.55;38.42;;;2.20;99.90;;;;;;5072283;28;20040;-74
2022/03/25 05:41:52;;;;;;;62.25;40.50;;;2.20;99.90;;;;;;5055365;28;20135;-74
2022/03/25 05:44:18;;;;;;;60.75;38.13;;;2.60;99.90;;;;;;5055270;28;20087;-73
2022/03/25 05:46:44;;;;;;;65.13;39.25;;;2.20;99.90;;;;;;5055461;28;20525;-73
2022/03/25 05:49:10;;;;;;;65.25;40.63;;;2.40;99.90;;;;;;5072072;28;20136;-73
2022/03/25 05:51:35;;;;;;;60.80;39.28;;;2.70;99.90;;;;;;5071674;28;20039;-74
2022/03/25 05:54:01;;;;;;;60.05;38.58;;;2.40;99.90;;;;;;5071689;28;20052;-74
2022/03/25 05:56:27;;;;;;;62.20;37.90;;;2.70;99.90;;;;;;5055262;28;20040;-74
2022/03/25 05:58:53;;;;;;;65.57;39.72;;;2.50;99.90;;;;;;5055074;28;20040;-75
2022/03/25 06:01:19;;;;;;;59.30;37.13;;;2.70;99.90;;;;;;5055039;28;20575;-75
2022/03/25 06:03:44;;;;;;;60.03;39.25;;;2.60;99.90;;;;;;5054833;28;20055;-74
2022/03/25 06:06:10;;;;;;;56.47;37.72;;;2.30;99.90;;;;;;5054888;28;20037;-74
2022/03/25 06:08:36;;;;;;;56.75;36.88;;;2.90;99.90;;;;;;5071712;28;20071;-73
2022/03/25 06:11:02;;;;;;;56.42;36.85;;;3.30;99.90;;;;;;5055069;28;20487;-73
2022/03/25 06:13:28;;;;;;;56.42;36.78;;;3.00;99.90;;;;;;5054767;28;20063;-73
2022/03/25 06:15:55;;;;;;;61.63;38.03;;;2.70;99.90;;;;;;5071300;28;20043;-73
2022/03/25 06:18:21;;;;;;;56.25;36.97;;;2.90;99.90;;;;;;5071221;28;20032;-74
2022/03/25 06:20:47;;;;;;;54.63;35.38;;;3.30;99.90;;;;;;5054085;28;20055;-74
2022/03/25 06:23:14;;;;;;;61.00;39.00;;;2.90;99.90;;;;;;5070262;28;20080;-73
2022/03/25 06:25:41;;;;;;;68.88;42.20;;;3.30;99.90;;;;;;5054396;28;20123;-73
2022/03/25 06:28:07;;;;;;;71.00;41.67;;;3.80;99.90;;;;;;5071088;28;20032;-74
2022/03/25 06:30:36;;;;;;;65.25;41.55;;;3.40;99.90;;;;;;5054425;28;20040;-74
2022/03/25 06:33:09;;;;;;;75.55;43.95;;;3.50;99.90;;;;;;5071339;28;20044;-73
2022/03/25 06:35:36;;;;;;;76.72;44.53;;;3.90;99.90;;;;;;5071326;28;20079;-74
2022/03/25 06:38:03;;;;;;;73.75;44.10;;;3.80;99.90;;;;;;5038210;28;20128;-73
2022/03/25 06:40:29;;;;;;;72.88;44.78;;;4.10;99.90;;;;;;5070981;28;20044;-73
2022/03/25 06:42:57;;;;;;;74.30;43.83;;;4.00;99.90;;;;;;5070887;28;20376;-73
2022/03/25 06:45:24;;;;;;;73.30;43.50;;;4.60;99.90;;;;;;5037830;28;20051;-75
2022/03/25 06:47:50;;;;;;;77.93;45.95;;;4.40;99.90;;;;;;5071158;28;20040;-73
2022/03/25 06:50:18;;;;;;;77.15;44.90;;;4.50;99.90;;;;;;5054230;28;20051;-74
2022/03/25 06:52:45;;;;;;;72.07;44.47;;;4.80;99.90;;;;;;5054030;28;20044;-75
2022/03/25 06:55:11;;;;;;;71.78;43.33;;;4.70;99.90;;;;;;5037664;28;20051;-74
2022/03/25 06:57:38;;;;;;;77.45;44.30;;;4.70;99.90;;;;;;5070661;28;20433;-73
2022/03/25 07:00:08;;;;;;;77.00;46.58;;;5.10;99.90;;;;;;5070466;28;20411;-76
2022/03/25 07:02:34;;;;;;;72.22;44.55;;;5.20;99.90;;;;;;5070603;28;20496;-75
2022/03/25 07:04:59;;;;;;;75.95;46.58;;;5.30;99.90;;;;;;5037235;28;20059;-74
2022/03/25 07:07:27;;;;;;;70.25;43.60;;;5.40;99.90;;;;;;5070584;28;20036;-76
2022/03/25 07:09:54;;;;;;;73.97;46.15;;;5.70;99.90;;;;;;5070620;28;20036;-77
2022/03/25 07:12:20;;;;;;;77.75;46.55;;;5.70;99.90;;;;;;5037419;28;20480;-74
2022/03/25 07:14:45;;;;;;;75.53;47.70;;;5.80;99.90;;;;;;5070181;28;20048;-75
2022/03/25 07:17:11;;;;;;;74.13;45.08;;;6.20;99.90;;;;;;5020748;28;20059;-75
2022/03/25 07:19:37;;;;;;;74.07;45.67;;;6.40;99.90;;;;;;5053460;28;20040;-76
2022/03/25 07:22:03;;;;;;;79.35;44.97;;;7.10;99.90;;;;;;5053491;28;20081;-76
2022/03/25 07:24:29;;;;;;;67.72;43.88;;;6.50;99.90;;;;;;5053687;28;20439;-72
2022/03/25 07:26:55;;;;;;;71.93;44.83;;;6.50;99.90;;;;;;5070061;28;20072;-74
2022/03/25 07:29:21;;;;;;;69.00;45.40;;;6.70;99.90;;;;;;5053575;28;20056;-72
2022/03/25 07:31:47;;;;;;;70.43;45.00;;;7.20;99.90;;;;;;5070265;28;20040;-73
2022/03/25 07:34:13;;;;;;;70.53;44.70;;;7.00;99.90;;;;;;5056701;28;20083;-72
2022/03/25 07:36:38;;;;;;;70.55;44.50;;;7.30;99.90;;;;;;5074303;28;20045;-73
2022/03/25 07:39:04;;;;;;;64.47;42.22;;;7.20;99.90;;;;;;5074584;28;20110;-73
2022/03/25 07:41:30;;;;;;;71.53;43.22;;;7.70;99.90;;;;;;5074484;28;20048;-72
2022/03/25 07:43:55;;;;;;;72.60;46.88;;;7.50;99.90;;;;;;5074200;28;20048;-72
2022/03/25 07:46:23;;;;;;;65.93;43.30;;;8.00;99.90;;;;;;5057671;28;20487;-73
2022/03/25 07:48:50;;;;;;;71.35;43.15;;;8.10;99.90;;;;;;5057575;28;20110;-72
2022/03/25 07:51:15;;;;;;;68.75;42.38;;;8.10;99.90;;;;;;5057442;28;20075;-74
2022/03/25 07:53:41;;;;;;;71.13;44.53;;;8.20;99.90;;;;;;5074275;28;20431;-73
2022/03/25 07:56:07;;;;;;;68.55;44.42;;;7.90;99.90;;;;;;5057612;28;20044;-75
2022/03/25 07:58:32;;;;;;;68.90;43.30;;;8.60;99.90;;;;;;5040448;28;20064;-74
2022/03/25 08:00:58;;;;;;;68.55;44.72;;;8.20;99.90;;;;;;5057189;28;20032;-73
2022/03/25 08:03:24;;;;;;;67.13;43.25;;;8.50;99.90;;;;;;5057439;28;20040;-73
2022/03/25 08:05:51;;;;;;;67.80;42.78;;;8.80;99.90;;;;;;5040606;28;20036;-74
2022/03/25 08:08:19;;;;;;;64.88;43.67;;;8.60;99.90;;;;;;5057572;28;20426;-73
2022/03/25 08:10:46;;;;;;;62.13;41.38;;;9.00;99.90;;;;;;5057631;28;20365;-73
2022/03/25 08:13:12;;;;;;;62.83;40.22;;;;;;;;;;5057027;28;20041;-74
2022/03/25 08:15:38;;;;;;;62.45;42.25;;;;;;;;;;5056917;28;20044;-74
2022/03/25 08:18:06;;;;;;;59.80;40.20;;;;;;;;;;5057264;28;20400;-73
2022/03/25 08:20:39;;;;;;;58.10;37.78;;;;;;;;;;5073509;28;20118;-73
2022/03/25 08:23:06;;;;;;;57.85;38.50;;;;;;;;;;5073323;28;20452;-75
2022/03/25 08:28:18;;;;;;;53.17;36.13;;;;;;;;;;5073679;28;20187;-74
2022/03/25 08:30:45;;;;;;;55.08;34.85;;;;;;;;;;5056722;28;20045;-74
2022/03/25 08:33:11;;;;;;;49.17;33.95;;;;;;;;;;5073333;28;20040;-73
2022/03/25 08:35:38;;;;;;;50.03;33.65;;;;;;;;;;5073389;28;20491;-74
2022/03/25 08:38:04;;;;;;;50.00;32.60;;;;;;;;;;5056696;28;20051;-74
2022/03/25 08:40:31;;;;;;;47.83;33.25;;;10.40;99.90;;;;;;5073087;28;20090;-74
2022/03/25 08:42:57;;;;;;;44.95;31.50;;;10.50;99.90;;;;;;5073368;28;20538;-74
2022/03/25 08:45:23;;;;;;;47.88;31.17;;;10.70;99.90;;;;;;5072205;28;20044;-75
2022/03/25 08:47:49;;;;;;;42.28;29.23;;;11.30;99.90;;;;;;5073292;28;20603;-75
2022/03/25 08:50:16;;;;;;;41.60;29.50;;;11.00;99.90;;;;;;5073337;28;20036;-73
2022/03/25 08:52:45;;;;;;;43.53;29.00;;;11.40;99.90;;;;;;5073213;28;20562;-74
2022/03/25 08:55:11;;;;;;;39.50;27.58;;;11.30;99.90;;;;;;5073249;28;20055;-75
2022/03/25 08:57:38;;;;;;;41.45;28.25;;;11.40;99.90;;;;;;5072768;28;20223;-74
2022/03/25 09:00:12;;;;;;;43.95;26.23;;;11.60;99.90;;;;;;5072792;28;20067;-74
2022/03/25 09:02:43;;;;;;;38.83;26.35;;;11.70;99.90;;;;;;5072856;28;20384;-74
2022/03/25 09:05:10;;;;;;;41.97;28.02;;;11.70;99.90;;;;;;5056017;28;20076;-73
2022/03/25 09:07:37;;;;;;;41.22;28.13;;;11.90;99.90;;;;;;5072682;28;20033;-74
2022/03/25 09:10:07;;;;;;;40.13;28.65;;;12.00;99.90;;;;;;5072901;28;20044;-73
2022/03/25 09:12:34;;;;;;;41.97;27.25;;;12.10;99.90;;;;;;5072629;28;20036;-73
2022/03/25 09:15:01;;;;;;;36.88;27.50;;;12.20;99.90;;;;;;5072591;28;20048;-75
2022/03/25 09:17:26;;;;;;;42.60;27.05;;;12.30;99.90;;;;;;5072574;28;20302;-74
2022/03/25 09:19:53;;;;;;;40.67;27.88;;;12.40;99.90;;;;;;5055998;28;20080;-73
2022/03/25 09:22:19;;;;;;;41.78;25.83;;;12.40;99.90;;;;;;5072072;28;20131;-74
2022/03/25 09:24:44;;;;;;;43.40;26.90;;;12.40;99.90;;;;;;5072468;28;20055;-75
2022/03/25 09:27:10;;;;;;;40.45;25.45;;;12.50;99.90;;;;;;5055722;28;20036;-74
2022/03/25 09:29:36;;;;;;;40.03;26.10;;;12.50;99.90;;;;;;5072263;28;20097;-74
2022/03/25 09:32:02;;;;;;;44.83;25.25;;;12.50;99.90;;;;;;5072472;28;20044;-74
2022/03/25 09:37:12;;;;;;;37.10;25.25;;;12.60;99.90;;;;;;5072271;28;20044;-72
2022/03/25 09:39:38;;;;;;;36.65;25.83;;;12.60;99.90;;;;;;5072067;28;20096;-72
2022/03/25 09:42:05;;;;;;;39.58;25.52;;;12.60;99.90;;;;;;5071943;28;20123;-73
2022/03/25 09:44:32;;;;;;;37.70;24.02;;;12.70;99.90;;;;;;5072188;28;20048;-73
2022/03/25 09:46:58;;;;;;;38.78;25.13;;;12.80;99.90;;;;;;5055410;28;20045;-73
2022/03/25 09:49:24;;;;;;;39.03;25.02;;;13.00;99.90;;;;;;5071954;28;20044;-73
2022/03/25 09:51:49;;;;;;;34.67;22.88;;;13.10;99.90;;;;;;5055179;28;20438;-72
2022/03/25 09:54:17;;;;;;;33.28;23.95;;;13.30;99.90;;;;;;5055370;28;20047;-75
2022/03/25 09:56:43;;;;;;;36.75;23.25;;;13.40;99.90;;;;;;5070629;28;20051;-74
2022/03/25 09:59:09;;;;;;;35.92;21.95;;;13.50;99.90;;;;;;5071758;28;20044;-75
2022/03/25 10:01:35;;;;;;;28.48;18.45;;;13.70;99.90;;;;;;5071902;28;20483;-73
2022/03/25 10:04:02;;;;;;;36.67;21.30;;;13.80;99.90;;;;;;5071475;28;20044;-74
2022/03/25 10:06:28;;;;;;;36.40;21.85;;;14.00;99.90;;;;;;5055290;28;20037;-76
2022/03/25 10:08:59;;;;;;;36.08;21.55;;;14.00;99.90;;;;;;5071819;28;20124;-74
2022/03/25 10:11:35;;;;;;;33.58;21.58;;;14.10;99.90;;;;;;5054742;28;20044;-75
2022/03/25 10:14:14;;;;;;;28.52;18.58;;;14.30;99.90;;;;;;5038948;28;20091;-75
2022/03/25 10:16:41;;;;;;;33.55;19.73;;;14.40;99.90;;;;;;5071360;28;20067;-75
2022/03/25 10:19:09;;;;;;;29.15;19.42;;;14.50;99.90;;;;;;5054617;28;20054;-75
2022/03/25 10:21:53;;;;;;;28.35;17.88;;;14.70;99.90;;;;;;5055389;28;20534;-73
2022/03/25 10:24:43;;;;;;;31.08;17.63;;;14.80;99.90;;;;;;5071389;28;20059;-74
2022/03/25 10:27:10;;;;;;;30.27;17.20;;;14.80;99.90;;;;;;5054845;28;20083;-74
2022/03/25 10:29:37;;;;;;;25.65;15.43;;;14.90;99.90;;;;;;5071265;28;20479;-73
2022/03/25 10:32:07;;;;;;;27.13;16.38;;;15.00;99.90;;;;;;5054368;28;20048;-74
2022/03/25 10:34:33;;;;;;;28.33;16.23;;;15.10;99.90;;;;;;5071273;28;20049;-74
2022/03/25 10:37:01;;;;;;;24.92;16.85;;;15.20;99.80;;;;;;5054502;28;20106;-74
2022/03/25 10:39:30;;;;;;;25.83;16.95;;;15.30;99.90;;;;;;5037778;28;20044;-74
2022/03/25 10:42:01;;;;;;;27.88;16.70;;;15.40;98.90;;;;;;5070856;28;20127;-74
2022/03/25 10:44:41;;;;;;;28.48;17.73;;;15.40;98.60;;;;;;5070751;28;20045;-74
2022/03/25 10:47:16;;;;;;;31.20;18.73;;;15.50;98.30;;;;;;5054149;28;20400;-74
2022/03/25 10:49:47;;;;;;;31.60;18.55;;;15.60;94.90;;;;;;5054173;28;20040;-76
2022/03/25 10:52:27;;;;;;;31.02;17.88;;;15.60;98.20;;;;;;5054293;28;20039;-75
2022/03/25 10:55:20;;;;;;;30.55;17.60;;;15.70;98.00;;;;;;5070711;28;20102;-75
2022/03/25 10:57:54;;;;;;;24.20;14.88;;;15.80;97.00;;;;;;5053948;28;20044;-75
2022/03/25 11:00:21;;;;;;;24.52;16.45;;;15.80;97.00;;;;;;5070991;28;20079;-75
2022/03/25 11:02:47;;;;;;;24.15;15.90;;;15.90;96.70;;;;;;5053899;28;20059;-74
2022/03/25 11:05:14;;;;;;;33.15;17.63;;;16.00;96.70;;;;;;5053959;28;20044;-75
2022/03/25 11:07:45;;;;;;;27.05;17.50;;;16.10;95.90;;;;;;5053639;28;20033;-75
2022/03/25 11:10:17;;;;;;;25.92;16.60;;;16.10;95.20;;;;;;5070525;28;20060;-74
2022/03/25 11:12:48;;;;;;;27.92;18.95;;;16.20;95.10;;;;;;5053877;28;20067;-74
2022/03/25 11:15:17;;;;;;;26.08;16.67;;;16.30;94.30;;;;;;5070687;28;20507;-76
2022/03/25 11:17:44;;;;;;;26.30;17.48;;;16.30;94.50;;;;;;5070511;28;20541;-75
2022/03/25 11:20:18;;;;;;;31.45;18.02;;;16.30;94.30;;;;;;5070428;28;20123;-75
2022/03/25 11:23:16;;;;;;;29.17;19.02;;;16.30;92.60;;;;;;5070341;28;20577;-75
2022/03/25 11:25:55;;;;;;;29.73;18.35;;;16.40;92.30;;;;;;5053432;28;20068;-75
2022/03/25 11:28:30;;;;;;;29.88;18.77;;;16.50;91.40;;;;;;5053951;28;20047;-75
2022/03/25 11:31:05;;;;;;;29.23;18.10;;;16.70;91.60;;;;;;5070540;28;20540;-74
2022/03/25 11:33:31;;;;;;;27.55;17.45;;;16.70;91.20;;;;;;5070346;28;20134;-75
2022/03/25 11:36:24;;;;;;;28.42;18.17;;;16.90;92.50;;;;;;5053604;28;20144;-73
2022/03/25 11:39:16;;;;;;;26.35;18.30;;;17.10;90.90;;;;;;5070556;28;20476;-74
2022/03/25 11:41:41;;;;;;;27.65;17.88;;;17.30;88.70;;;;;;5070030;28;20059;-74
2022/03/25 11:44:18;;;;;;;24.80;17.42;;;17.40;91.40;;;;;;5053655;28;20041;-74
2022/03/25 11:46:59;;;;;;;27.42;19.08;;;17.60;89.70;;;;;;5070323;28;20049;-74
2022/03/25 11:49:33;;;;;;;29.67;18.42;;;17.80;89.20;;;;;;5070245;28;20036;-76
2022/03/25 11:52:20;;;;;;;24.63;17.40;;;17.80;90.00;;;;;;5070478;28;20491;-76
2022/03/25 11:54:54;;;;;;;28.80;18.20;;;18.00;87.40;;;;;;5070115;28;20040;-76
2022/03/25 11:57:26;;;;;;;31.45;18.65;;;18.00;89.80;;;;;;5070169;28;20079;-76
2022/03/25 11:59:59;;;;;;;25.13;16.92;;;17.90;85.20;;;;;;5069995;28;20076;-76
2022/03/25 12:02:36;;;;;;;26.85;17.08;;;18.00;86.90;;;;;;5069914;28;20109;-76
2022/03/25 12:05:22;;;;;;;24.38;15.05;;;18.20;84.50;;;;;;5070327;28;20676;-75
2022/03/25 12:08:28;;;;;;;23.08;15.32;;;18.30;85.40;;;;;;5069886;28;20033;-75
2022/03/25 12:10:54;;;;;;;22.42;15.25;;;18.30;81.30;;;;;;5053623;28;20822;-75
2022/03/25 12:13:21;;;;;;;19.52;15.13;;;18.30;83.10;;;;;;5069882;28;20124;-75
2022/03/25 12:15:49;;;;;;;20.85;13.15;;;18.30;80.40;;;;;;5053371;28;20131;-75
2022/03/25 12:18:44;;;;;;;21.17;13.25;;;18.30;81.60;;;;;;5069719;28;20060;-75
2022/03/25 12:21:11;;;;;;;24.85;14.00;;;18.50;80.20;;;;;;5072640;28;20048;-76
2022/03/25 12:23:38;;;;;;;24.75;15.23;;;18.80;80.30;;;;;;5073390;28;20136;-76
2022/03/25 12:26:04;;;;;;;20.58;14.02;;;18.90;80.60;;;;;;5073403;28;20041;-76
2022/03/25 12:28:31;;;;;;;25.95;14.88;;;19.10;80.70;;;;;;5040130;28;20078;-75
2022/03/25 12:31:03;;;;;;;21.90;14.40;;;19.40;81.30;;;;;;5056955;28;20035;-75
2022/03/25 12:33:28;;;;;;;22.55;14.85;;;19.60;77.90;;;;;;5056895;28;20044;-75
2022/03/25 12:35:58;;;;;;;20.15;14.40;;;19.70;77.70;;;;;;5056629;28;20052;-75
2022/03/25 12:38:25;;;;;;;21.50;15.02;;;19.90;76.00;;;;;;5056433;28;20051;-76
2022/03/25 12:40:53;;;;;;;23.23;13.57;;;20.00;74.60;;;;;;5073107;28;20083;-76
2022/03/25 12:43:28;;;;;;;22.27;14.40;;;20.00;75.40;;;;;;5073445;28;20109;-75